Time;durP1;ratioP1;P1;durP2;ratioP2;P2;SDS_P1;SDS_P2;PMS_P1;PMS_P2;Temp;Humidity;BMP_temperature;BMP_pressure;BME280_temperature;BME280_humidity;BME280_pressure;Samples;Min_cycle;Max_cycle;Signal;HPM_P1;HPM_P2
2022/07/08 00:02:25;;;;;;;3.92;3.52;;;;;;;16.89;76.98;100906.40;1758716;81;21446;-78
2022/07/08 00:04:52;;;;;;;6.37;3.62;;;;;;;16.89;77.06;100911.22;1766063;80;21188;-77
2022/07/08 00:07:19;;;;;;;3.77;3.47;;;;;;;16.88;77.07;100904.70;1754752;81;21088;-78
2022/07/08 00:09:46;;;;;;;4.20;3.67;;;;;;;16.87;77.24;100913.56;1764211;81;21037;-79
2022/07/08 00:12:13;;;;;;;4.58;3.90;;;;;;;16.88;77.29;100913.97;1767553;80;20998;-78
2022/07/08 00:14:40;;;;;;;4.17;3.62;;;;;;;16.86;77.25;100911.87;1745576;81;21052;-78
2022/07/08 00:17:07;;;;;;;4.00;3.50;;;;;;;16.83;77.46;100912.04;1746624;81;21029;-77
2022/07/08 00:19:34;;;;;;;4.35;3.95;;;;;;;16.83;77.52;100914.69;1766468;80;20929;-78
2022/07/08 00:22:00;;;;;;;4.33;3.92;;;;;;;16.79;77.56;100908.69;1767677;81;20978;-78
2022/07/08 00:24:27;;;;;;;4.20;3.80;;;;;;;16.78;77.80;100910.95;1765820;81;21446;-78
2022/07/08 00:26:55;;;;;;;4.78;3.62;;;;;;;16.80;77.92;100917.50;1739927;81;21060;-78
2022/07/08 00:29:22;;;;;;;3.75;3.45;;;;;;;16.80;78.06;100914.38;1767520;81;22267;-77
2022/07/08 00:31:49;;;;;;;4.75;3.70;;;;;;;16.82;78.19;100918.25;1760408;81;21006;-86
2022/07/08 00:34:16;;;;;;;4.15;3.85;;;;;;;16.81;78.09;100921.37;1765069;81;21474;-77
2022/07/08 00:36:43;;;;;;;4.12;3.72;;;;;;;16.81;78.28;100928.00;1760132;81;21509;-77
2022/07/08 00:39:10;;;;;;;4.28;3.87;;;;;;;16.82;78.40;100928.84;1763603;80;21017;-85
2022/07/08 00:41:37;;;;;;;4.83;3.90;;;;;;;16.80;78.48;100928.94;1767895;81;21115;-79
2022/07/08 00:44:05;;;;;;;5.20;4.15;;;;;;;16.81;78.69;100931.11;1765626;81;21581;-78
2022/07/08 00:46:32;;;;;;;3.83;3.52;;;;;;;16.82;78.73;100936.34;1754194;80;21049;-78
2022/07/08 00:48:59;;;;;;;4.90;4.50;;;;;;;16.83;78.85;100939.36;1760898;80;21017;-78
2022/07/08 00:51:28;;;;;;;4.17;3.80;;;;;;;16.83;78.81;100940.69;1759762;81;21489;-78
2022/07/08 00:53:55;;;;;;;5.12;4.00;;;;;;;16.84;78.91;100947.68;1757732;81;21064;-83
2022/07/08 00:56:23;;;;;;;5.33;4.35;;;;;;;16.84;78.99;100938.89;1766975;80;21021;-77
2022/07/08 00:58:50;;;;;;;4.55;4.15;;;;;;;16.84;79.03;100944.18;1768852;80;21016;-78
2022/07/08 01:01:18;;;;;;;4.30;3.92;;;;;;;16.83;79.07;100947.78;1754807;81;21029;-78
2022/07/08 01:03:45;;;;;;;4.35;3.95;;;;;;;16.84;79.24;100944.18;1744767;81;21005;-77
2022/07/08 01:06:13;;;;;;;4.80;4.15;;;;;;;16.86;79.43;100949.78;1750394;81;21057;-78
2022/07/08 01:08:41;;;;;;;4.75;4.25;;;;;;;16.89;79.42;100947.44;1768883;81;20926;-78
2022/07/08 01:11:09;;;;;;;4.83;4.40;;;;;;;16.88;79.34;100953.69;1748598;81;21021;-78
2022/07/08 01:13:38;;;;;;;5.05;4.10;;;;;;;16.85;79.52;100952.50;1751689;81;21510;-77
2022/07/08 01:16:07;;;;;;;5.70;4.25;;;;;;;16.87;79.58;100957.25;1756800;81;21083;-86
2022/07/08 01:18:34;;;;;;;4.10;3.80;;;;;;;16.89;79.77;100960.20;1750184;81;21154;-78
2022/07/08 01:21:02;;;;;;;4.75;3.90;;;;;;;16.88;79.72;100961.63;1759852;80;21771;-78
2022/07/08 01:23:29;;;;;;;5.20;3.72;;;;;;;16.90;79.86;100959.73;1774502;80;21080;-88
2022/07/08 01:25:58;;;;;;;5.28;4.78;;;;;;;16.91;79.86;100962.78;1772675;80;20991;-77
2022/07/08 01:28:25;;;;;;;4.80;4.40;;;;;;;16.92;79.87;100966.66;1761701;80;21029;-86
2022/07/08 01:30:52;;;;;;;4.90;4.40;;;;;;;16.93;79.88;100962.20;1774062;80;21057;-78
2022/07/08 01:33:19;;;;;;;4.15;3.80;;;;;;;16.94;79.91;100965.26;1767238;80;21022;-85
2022/07/08 01:35:46;;;;;;;5.08;4.15;;;;;;;16.97;79.87;100970.86;1769575;80;21061;-82
2022/07/08 01:38:13;;;;;;;4.42;4.03;;;;;;;16.97;79.81;100967.73;1776871;80;20950;-78
2022/07/08 01:40:40;;;;;;;8.30;4.03;;;;;;;16.95;79.68;100975.75;1764272;80;21017;-78
2022/07/08 01:43:06;;;;;;;3.70;3.40;;;;;;;16.95;79.69;100979.72;1772538;80;21107;-78
2022/07/08 01:45:34;;;;;;;3.65;3.00;;;;;;;16.97;79.66;100984.09;1761351;80;21025;-80
2022/07/08 01:48:01;;;;;;;3.75;2.58;;;;;;;16.95;79.29;100987.66;1753228;80;20990;-78
2022/07/08 01:50:28;;;;;;;2.62;2.40;;;;;;;16.94;79.18;100987.77;1767948;80;20965;-78
2022/07/08 01:52:55;;;;;;;2.55;2.35;;;;;;;16.90;79.00;100992.83;1769841;80;21482;-78
2022/07/08 01:55:22;;;;;;;2.52;2.22;;;;;;;16.87;78.91;100989.02;1762684;80;21012;-78
2022/07/08 01:57:49;;;;;;;3.27;2.10;;;;;;;16.85;78.94;100989.13;1759484;80;21045;-80
2022/07/08 02:00:16;;;;;;;2.50;2.30;;;;;;;16.82;78.76;100991.05;1753614;80;21073;-78
2022/07/08 02:02:44;;;;;;;3.12;2.17;;;;;;;16.77;78.68;100999.27;1764795;80;21017;-80
2022/07/08 02:05:12;;;;;;;2.60;2.25;;;;;;;16.74;78.77;100998.08;1775148;80;21496;-78
2022/07/08 02:07:39;;;;;;;2.50;1.60;;;;;;;16.73;78.87;100997.20;1772157;80;21103;-78
2022/07/08 02:10:07;;;;;;;2.00;1.80;;;;;;;16.74;78.95;101007.34;1757252;80;20991;-86
2022/07/08 02:12:35;;;;;;;4.17;2.15;;;;;;;16.77;78.97;101002.39;1775924;79;20994;-78
2022/07/08 02:15:07;;;;;;;4.00;2.40;;;;;;;16.78;78.90;101014.67;1771944;80;21045;-78
2022/07/08 02:17:40;;;;;;;3.08;2.40;;;;;;;16.76;78.69;101013.86;1777580;80;20994;-82
2022/07/08 02:20:13;;;;;;;5.45;2.25;;;;;;;16.72;78.55;101015.83;1767729;80;21103;-78
2022/07/08 02:22:42;;;;;;;5.83;2.55;;;;;;;16.70;78.65;101015.04;1766771;81;21080;-78
2022/07/08 02:25:18;;;;;;;4.85;2.17;;;;;;;16.70;78.64;101016.37;1761820;81;21491;-78
2022/07/08 02:27:46;;;;;;;4.12;2.33;;;;;;;16.69;78.60;101017.31;1756962;81;21518;-81
2022/07/08 02:30:13;;;;;;;3.58;2.27;;;;;;;16.67;78.46;101021.34;1748344;81;21001;-77
2022/07/08 02:32:40;;;;;;;5.62;2.77;;;;;;;16.64;78.56;101017.55;1757585;81;21868;-86
2022/07/08 02:35:08;;;;;;;4.78;2.30;;;;;;;16.63;78.58;101028.23;1758240;81;20990;-78
2022/07/08 02:37:35;;;;;;;5.45;2.77;;;;;;;16.64;78.66;101030.78;1767307;81;20998;-85
2022/07/08 02:40:02;;;;;;;6.92;2.52;;;;;;;16.64;78.57;101030.78;1760799;80;21009;-78
2022/07/08 02:42:29;;;;;;;7.47;2.90;;;;;;;16.63;78.54;101038.34;1746728;81;21024;-87
2022/07/08 02:44:56;;;;;;;8.25;2.95;;;;;;;16.62;78.53;101035.77;1766622;81;21471;-78
2022/07/08 02:47:23;;;;;;;7.60;2.92;;;;;;;16.62;78.68;101035.77;1760579;81;21064;-83
2022/07/08 02:49:50;;;;;;;8.45;3.02;;;;;;;16.66;78.80;101043.47;1754281;81;21060;-77
2022/07/08 02:52:18;;;;;;;7.08;2.90;;;;;;;16.67;78.64;101049.14;1763927;81;21001;-78
2022/07/08 02:54:45;;;;;;;8.58;3.05;;;;;;;16.67;78.57;101044.32;1754977;81;21026;-78
2022/07/08 02:57:12;;;;;;;7.45;3.33;;;;;;;16.65;78.58;101046.19;1758292;81;21097;-78
2022/07/08 02:59:39;;;;;;;7.45;3.22;;;;;;;16.63;78.50;101046.28;1749254;81;21017;-83
2022/07/08 03:02:06;;;;;;;7.95;3.00;;;;;;;16.63;78.67;101048.08;1747362;80;21490;-78
2022/07/08 03:04:33;;;;;;;7.08;3.37;;;;;;;16.65;78.69;101051.48;1742177;81;20993;-78
2022/07/08 03:07:00;;;;;;;4.95;2.92;;;;;;;16.65;78.61;101056.30;1749141;81;21024;-78
2022/07/08 03:09:26;;;;;;;8.40;2.83;;;;;;;16.65;78.72;101055.45;1754166;81;21897;-78
2022/07/08 03:11:53;;;;;;;7.92;3.90;;;;;;;16.66;78.73;101067.30;1763887;81;21673;-78
2022/07/08 03:14:20;;;;;;;4.62;2.90;;;;;;;16.68;78.69;101068.52;1766638;80;20990;-78
2022/07/08 03:16:47;;;;;;;6.87;3.15;;;;;;;16.68;78.66;101066.75;1766709;81;21024;-84
2022/07/08 03:19:14;;;;;;;10.32;3.55;;;;;;;16.68;78.54;101072.48;1744217;80;21009;-78
2022/07/08 03:21:41;;;;;;;7.58;3.22;;;;;;;16.63;78.46;101069.25;1753027;80;21758;-83
2022/07/08 03:24:08;;;;;;;7.25;3.55;;;;;;;16.62;78.47;101073.66;1759377;81;20978;-84
2022/07/08 03:26:35;;;;;;;8.65;3.50;;;;;;;16.62;78.60;101077.63;1762616;81;21049;-78
2022/07/08 03:29:02;;;;;;;7.30;3.40;;;;;;;16.61;78.54;101082.55;1763285;81;21487;-80
2022/07/08 03:31:29;;;;;;;9.05;3.77;;;;;;;16.59;78.48;101082.23;1765047;81;21028;-82
2022/07/08 03:33:56;;;;;;;9.48;4.03;;;;;;;16.58;78.44;101088.48;1766559;81;22081;-78
2022/07/08 03:36:23;;;;;;;7.67;3.50;;;;;;;16.55;78.53;101092.13;1758930;81;21020;-78
2022/07/08 03:38:50;;;;;;;8.48;3.20;;;;;;;16.57;78.74;101097.33;1749719;81;21023;-79
2022/07/08 03:41:20;;;;;;;8.08;3.12;;;;;;;16.55;78.58;101097.42;1763097;80;21403;-78
2022/07/08 03:43:52;;;;;;;;;;;;;;;16.56;78.58;101103.57;1771627;81;21282;-78
2022/07/08 03:46:19;;;;;;;9.68;3.70;;;;;;;16.54;78.75;101095.70;1760057;80;21271;-79
2022/07/08 03:48:47;;;;;;;8.90;3.52;;;;;;;16.54;78.70;101101.45;1760210;81;20974;-77
2022/07/08 03:51:15;;;;;;;8.83;3.33;;;;;;;16.51;78.71;101099.35;1762899;81;21497;-78
2022/07/08 03:53:44;;;;;;;9.45;3.47;;;;;;;16.52;78.65;101108.17;1757744;81;20999;-78
2022/07/08 03:56:11;;;;;;;7.83;3.25;;;;;;;16.51;78.81;101105.97;1751609;81;21068;-78
2022/07/08 03:58:38;;;;;;;10.60;3.35;;;;;;;16.53;78.75;101106.38;1756882;81;21938;-78
2022/07/08 04:01:05;;;;;;;11.12;3.77;;;;;;;16.52;78.69;101112.14;1757230;81;21005;-84
2022/07/08 04:03:33;;;;;;;7.03;3.00;;;;;;;16.51;78.65;101116.55;1749109;81;21493;-78
2022/07/08 04:06:00;;;;;;;9.50;3.55;;;;;;;16.52;78.67;101120.08;1767257;81;21024;-78
2022/07/08 04:08:27;;;;;;;8.60;2.98;;;;;;;16.53;78.71;101118.28;1749391;81;20997;-79
2022/07/08 04:10:54;;;;;;;11.85;3.50;;;;;;;16.54;78.68;101120.84;1762862;81;21094;-78
2022/07/08 04:13:22;;;;;;;12.95;3.10;;;;;;;16.54;78.71;101121.30;1763245;81;21064;-78
2022/07/08 04:15:52;;;;;;;9.38;3.22;;;;;;;16.55;78.67;101129.19;1759539;81;21499;-80
2022/07/08 04:18:19;;;;;;;10.80;3.02;;;;;;;16.53;78.65;101128.40;1760222;81;21060;-78
2022/07/08 04:20:46;;;;;;;5.08;2.58;;;;;;;16.54;78.67;101135.86;1760337;80;21518;-78
2022/07/08 04:23:13;;;;;;;11.12;3.22;;;;;;;16.53;78.63;101138.98;1763981;79;21131;-78
2022/07/08 04:25:40;;;;;;;10.90;3.05;;;;;;;16.55;78.69;101145.53;1773087;79;21083;-78
2022/07/08 04:28:07;;;;;;;12.13;3.35;;;;;;;16.51;78.30;101140.84;1774371;80;21030;-78
2022/07/08 04:30:34;;;;;;;10.88;2.70;;;;;;;16.56;78.53;101148.56;1760380;80;21015;-83
2022/07/08 04:33:01;;;;;;;11.65;3.58;;;;;;;16.49;78.59;101147.55;1747990;80;21065;-82
2022/07/08 04:35:28;;;;;;;13.43;3.02;;;;;;;16.55;78.52;101163.59;1751824;80;21156;-86
2022/07/08 04:37:55;;;;;;;10.08;2.80;;;;;;;16.52;78.41;101166.39;1753551;80;21668;-89
2022/07/08 04:40:22;;;;;;;11.22;2.77;;;;;;;16.52;78.55;101167.72;1746809;80;21121;-87
2022/07/08 04:42:49;;;;;;;13.40;3.15;;;;;;;16.52;78.47;101167.72;1750546;79;22235;-87
2022/07/08 04:45:16;;;;;;;10.48;2.80;;;;;;;16.55;78.63;101165.38;1753449;80;21434;-86
2022/07/08 04:47:44;;;;;;;9.30;2.40;;;;;;;16.58;78.49;101165.23;1755333;80;21180;-87
2022/07/08 04:50:10;;;;;;;10.50;2.60;;;;;;;16.57;78.43;101163.05;1756693;79;20949;-87
2022/07/08 04:52:37;;;;;;;11.57;3.08;;;;;;;16.58;78.41;101170.05;1753548;80;21605;-86
2022/07/08 04:55:05;;;;;;;13.98;3.83;;;;;;;16.58;78.24;101171.38;1759542;80;21080;-88
2022/07/08 04:57:32;;;;;;;11.22;3.22;;;;;;;16.57;78.27;101176.28;1750995;80;21442;-87
2022/07/08 05:00:00;;;;;;;10.40;3.22;;;;;;;16.57;78.18;101184.23;1754712;80;21108;-85
2022/07/08 05:02:28;;;;;;;9.55;2.98;;;;;;;16.57;78.45;101182.02;1766241;80;21040;-86
2022/07/08 05:04:54;;;;;;;13.10;3.17;;;;;;;16.61;78.43;101184.45;1754615;80;21033;-82
2022/07/08 05:07:21;;;;;;;11.63;3.40;;;;;;;16.60;78.24;101178.78;1765695;80;21626;-88
2022/07/08 05:09:49;;;;;;;11.50;3.15;;;;;;;16.62;78.30;101178.69;1747379;80;21029;-84
2022/07/08 05:12:15;;;;;;;12.05;3.60;;;;;;;16.64;78.11;101188.27;1746909;80;21307;-80
2022/07/08 05:14:42;;;;;;;7.55;3.20;;;;;;;16.62;78.13;101190.59;1763794;80;21041;-83
2022/07/08 05:17:09;;;;;;;7.80;2.75;;;;;;;16.65;78.25;101193.94;1761430;80;21073;-84
2022/07/08 05:19:36;;;;;;;9.90;2.77;;;;;;;16.67;78.31;101194.72;1760598;80;21478;-84
2022/07/08 05:22:04;;;;;;;8.50;3.15;;;;;;;16.72;78.32;101200.65;1753145;80;21077;-80
2022/07/08 05:24:30;;;;;;;10.80;3.37;;;;;;;16.77;78.26;101208.88;1751205;79;21967;-82
2022/07/08 05:26:57;;;;;;;11.75;3.25;;;;;;;16.79;78.08;101208.31;1755195;80;21014;-81
2022/07/08 05:29:24;;;;;;;12.47;3.77;;;;;;;16.75;77.77;101214.67;1752381;80;21045;-82
2022/07/08 05:31:53;;;;;;;8.03;2.72;;;;;;;16.71;77.78;101225.86;1745256;80;21506;-81
2022/07/08 05:34:21;;;;;;;11.78;3.00;;;;;;;16.70;77.88;101213.09;1752550;80;21485;-90
2022/07/08 05:36:48;;;;;;;11.38;3.70;;;;;;;16.70;77.78;101222.84;1752441;80;21170;-81
2022/07/08 05:39:16;;;;;;;13.15;3.65;;;;;;;16.70;77.86;101217.06;1758065;80;21490;-78
2022/07/08 05:41:42;;;;;;;11.53;3.52;;;;;;;16.71;77.81;101221.45;1746512;80;21026;-76
2022/07/08 05:44:09;;;;;;;11.08;3.77;;;;;;;16.72;77.70;101227.59;1758162;80;20981;-77
2022/07/08 05:46:36;;;;;;;11.68;2.85;;;;;;;16.71;77.72;101220.56;1749402;80;21035;-77
2022/07/08 05:49:03;;;;;;;13.62;3.65;;;;;;;16.72;77.71;101220.98;1747298;80;21126;-76
2022/07/08 05:51:30;;;;;;;9.83;3.80;;;;;;;16.73;77.72;101221.36;1749298;80;21522;-79
2022/07/08 05:53:57;;;;;;;12.82;3.92;;;;;;;16.76;77.68;101227.82;1749428;80;21021;-83
2022/07/08 05:56:24;;;;;;;11.57;4.03;;;;;;;16.78;77.69;101229.11;1747546;80;21014;-78
2022/07/08 05:58:51;;;;;;;7.12;2.92;;;;;;;16.77;77.70;101233.55;1751554;80;21116;-78
2022/07/08 06:01:18;;;;;;;12.73;4.33;;;;;;;16.79;77.79;101232.14;1754535;80;21134;-80
2022/07/08 06:03:45;;;;;;;10.20;3.65;;;;;;;16.79;77.56;101240.94;1760656;80;21033;-81
2022/07/08 06:06:12;;;;;;;14.68;4.80;;;;;;;16.80;77.61;101240.02;1755062;80;21274;-78
2022/07/08 06:08:39;;;;;;;14.95;5.17;;;;;;;16.79;77.40;101242.25;1752337;80;21064;-78
2022/07/08 06:11:06;;;;;;;15.58;4.70;;;;;;;16.78;77.51;101250.30;1758690;80;21572;-79
2022/07/08 06:13:33;;;;;;;11.55;4.37;;;;;;;16.75;77.19;101248.62;1760851;80;21118;-79
2022/07/08 06:16:01;;;;;;;13.43;5.05;;;;;;;16.69;77.18;101249.78;1756862;80;21036;-81
2022/07/08 06:18:27;;;;;;;13.78;4.37;;;;;;;16.68;77.41;101250.72;1758422;80;21511;-80
2022/07/08 06:20:54;;;;;;;10.53;4.33;;;;;;;16.69;77.57;101259.52;1762222;80;21021;-81
2022/07/08 06:23:21;;;;;;;15.75;5.17;;;;;;;16.71;77.57;101258.95;1765525;80;21526;-81
2022/07/08 06:25:49;;;;;;;10.18;4.08;;;;;;;16.73;77.50;101253.13;1770214;80;21078;-81
2022/07/08 06:28:16;;;;;;;11.00;4.33;;;;;;;16.74;77.41;101262.80;1769479;80;21029;-79
2022/07/08 06:30:43;;;;;;;11.73;4.90;;;;;;;16.71;77.37;101257.19;1764134;80;21255;-80
2022/07/08 06:33:10;;;;;;;14.60;5.35;;;;;;;16.73;77.45;101255.30;1760328;80;21411;-80
2022/07/08 06:35:37;;;;;;;11.22;4.45;;;;;;;16.71;77.21;101257.19;1755774;80;21093;-81
2022/07/08 06:38:04;;;;;;;13.10;4.60;;;;;;;16.69;77.34;101262.16;1769123;80;22448;-78
2022/07/08 06:40:31;;;;;;;12.50;4.22;;;;;;;16.70;77.33;101266.52;1758935;80;21531;-83
2022/07/08 06:42:58;;;;;;;12.45;4.33;;;;;;;16.70;77.40;101264.72;1757250;80;21299;-81
2022/07/08 06:45:25;;;;;;;13.68;5.20;;;;;;;16.72;77.25;101267.30;1755317;80;21060;-81
2022/07/08 06:47:52;;;;;;;13.90;4.90;;;;;;;16.73;77.38;101267.69;1757943;80;21538;-82
2022/07/08 06:50:19;;;;;;;15.10;4.70;;;;;;;16.84;77.63;101265.87;1754305;80;21108;-81
2022/07/08 06:52:46;;;;;;;12.68;4.65;;;;;;;16.93;77.47;101272.91;1763861;80;22242;-83
2022/07/08 06:55:13;;;;;;;15.30;4.12;;;;;;;16.94;77.20;101279.91;1748563;80;21032;-80
2022/07/08 06:57:40;;;;;;;13.50;4.42;;;;;;;16.96;77.24;101286.47;1766077;80;21089;-83
2022/07/08 07:00:09;;;;;;;13.70;3.90;;;;;;;16.95;76.96;101284.26;1751420;80;21009;-84
2022/07/08 07:02:36;;;;;;;14.87;4.27;;;;;;;16.94;76.86;101290.50;1778378;80;22047;-79
2022/07/08 07:05:05;;;;;;;10.68;4.20;;;;;;;16.92;76.83;101292.83;1760151;79;21057;-84
2022/07/08 07:07:32;;;;;;;8.68;4.12;;;;;;;16.94;76.99;101290.50;1753996;80;21101;-82
2022/07/08 07:10:00;;;;;;;11.55;4.20;;;;;;;16.98;76.87;101289.88;1755986;80;21591;-80
2022/07/08 07:12:27;;;;;;;15.83;4.42;;;;;;;17.03;77.00;101294.95;1762039;80;21061;-82
2022/07/08 07:14:54;;;;;;;14.38;4.12;;;;;;;17.12;77.08;101296.66;1763733;80;21119;-89
2022/07/08 07:17:22;;;;;;;12.68;3.80;;;;;;;17.19;76.93;101289.27;1763320;80;21045;-84
2022/07/08 07:19:49;;;;;;;11.30;4.10;;;;;;;17.29;76.87;101294.51;1756535;80;21057;-82
2022/07/08 07:22:17;;;;;;;13.58;4.10;;;;;;;17.39;76.74;101304.16;1749178;80;21021;-80
2022/07/08 07:24:44;;;;;;;11.93;4.28;;;;;;;17.46;76.46;101301.59;1749360;80;21212;-83
2022/07/08 07:27:11;;;;;;;12.43;4.67;;;;;;;17.48;76.13;101307.65;1751518;79;22135;-85
2022/07/08 07:29:38;;;;;;;13.40;5.20;;;;;;;17.49;76.06;101306.73;1760510;80;21577;-82
2022/07/08 07:32:06;;;;;;;11.65;5.15;;;;;;;17.54;76.00;101315.31;1752540;80;21033;-82
2022/07/08 07:34:33;;;;;;;16.75;5.03;;;;;;;17.52;75.62;101309.70;1749226;80;21085;-77
2022/07/08 07:37:00;;;;;;;13.98;4.65;;;;;;;17.51;75.55;101303.98;1759226;80;21002;-80
2022/07/08 07:39:27;;;;;;;9.75;4.00;;;;;;;17.52;75.65;101315.85;1779763;80;21119;-81
2022/07/08 07:41:54;;;;;;;7.90;4.08;;;;;;;17.55;75.50;101320.14;1767324;80;21482;-82
2022/07/08 07:44:21;;;;;;;13.45;4.55;;;;;;;17.57;75.49;101310.29;1761266;80;21009;-81
2022/07/08 07:46:47;;;;;;;10.72;4.75;;;;;;;17.65;75.54;101321.83;1775069;80;21478;-83
2022/07/08 07:49:14;;;;;;;10.60;3.87;;;;;;;17.65;75.15;101317.38;1764702;80;21001;-81
2022/07/08 07:51:41;;;;;;;9.70;3.50;;;;;;;17.64;75.02;101331.58;1765869;80;21104;-82
2022/07/08 07:54:08;;;;;;;11.95;3.52;;;;;;;17.71;75.11;101321.50;1766478;80;21440;-82
2022/07/08 07:56:35;;;;;;;9.45;2.67;;;;;;;17.79;75.09;101319.34;1779907;80;21267;-84
2022/07/08 07:59:03;;;;;;;10.98;3.35;;;;;;;17.80;74.83;101319.75;1762209;80;21053;-85
2022/07/08 08:01:30;;;;;;;10.28;2.85;;;;;;;17.82;74.73;101322.71;1765775;79;21025;-83
2022/07/08 08:03:56;;;;;;;10.65;2.52;;;;;;;17.86;74.78;101314.11;1766383;80;21444;-82
2022/07/08 08:06:23;;;;;;;7.60;2.52;;;;;;;17.94;74.88;101321.20;1774392;80;21045;-83
2022/07/08 08:08:50;;;;;;;6.92;2.58;;;;;;;18.06;75.03;101317.02;1778370;80;21565;-80
2022/07/08 08:11:17;;;;;;;8.55;2.60;;;;;;;18.16;74.54;101325.36;1777953;80;21021;-83
2022/07/08 08:13:44;;;;;;;5.67;2.20;;;;;;;18.26;74.27;101309.30;1781309;80;21025;-83
2022/07/08 08:16:11;;;;;;;9.38;2.90;;;;;;;18.38;74.16;101305.99;1769498;80;21041;-81
2022/07/08 08:18:38;;;;;;;7.33;2.75;;;;;;;18.49;73.90;101311.56;1774021;80;21434;-82
2022/07/08 08:21:05;;;;;;;9.40;2.92;;;;;;;18.52;73.44;101309.69;1768180;80;21005;-84
2022/07/08 08:23:32;;;;;;;7.10;2.80;;;;;;;18.45;72.99;101316.64;1775115;80;21029;-82
2022/07/08 08:25:59;;;;;;;8.60;2.55;;;;;;;18.43;73.07;101313.23;1779980;80;21554;-86
2022/07/08 08:28:26;;;;;;;7.40;2.25;;;;;;;18.53;73.44;101316.70;1774936;80;22006;-82
2022/07/08 08:30:53;;;;;;;7.80;2.47;;;;;;;18.66;73.24;101323.04;1752579;80;21003;-85
2022/07/08 08:33:20;;;;;;;8.63;2.65;;;;;;;18.76;72.94;101324.72;1768902;80;21002;-82
2022/07/08 08:35:47;;;;;;;11.88;2.87;;;;;;;18.73;72.59;101329.70;1768041;80;21054;-83
2022/07/08 08:38:14;;;;;;;5.35;1.95;;;;;;;18.63;72.12;101325.88;1754857;80;22058;-83
2022/07/08 08:40:42;;;;;;;8.65;2.42;;;;;;;18.64;72.23;101324.44;1759201;80;21050;-88
2022/07/08 08:43:09;;;;;;;6.35;2.60;;;;;;;18.65;72.02;101322.64;1761593;80;21117;-86
2022/07/08 08:45:38;;;;;;;7.60;2.33;;;;;;;18.59;71.92;101325.16;1763851;80;21750;-85
2022/07/08 08:48:10;;;;;;;8.75;2.75;;;;;;;18.58;71.82;101329.25;1766800;80;21022;-93
2022/07/08 08:50:56;;;;;;;7.92;2.25;;;;;;;18.57;71.94;101332.37;1779841;80;20978;-87
2022/07/08 08:53:27;;;;;;;9.15;2.05;;;;;;;18.60;71.81;101338.00;1776336;80;21212;-90
2022/07/08 08:55:59;;;;;;;7.33;2.45;;;;;;;18.59;71.60;101332.28;1775837;80;21049;-90
2022/07/08 08:58:26;;;;;;;4.83;2.05;;;;;;;18.60;71.49;101337.52;1770326;80;21017;-83
2022/07/08 09:00:52;;;;;;;6.62;2.10;;;;;;;18.63;71.42;101339.15;1768209;80;21037;-85
2022/07/08 09:03:19;;;;;;;6.65;1.90;;;;;;;18.60;71.18;101336.19;1779761;80;21021;-85
2022/07/08 09:05:48;;;;;;;5.65;1.70;;;;;;;18.68;71.41;101333.11;1780191;80;21090;-85
2022/07/08 09:08:15;;;;;;;7.22;2.00;;;;;;;18.79;71.38;101333.39;1779896;80;20879;-86
2022/07/08 09:10:42;;;;;;;7.00;2.10;;;;;;;18.86;71.04;101335.22;1763856;80;21013;-79
2022/07/08 09:13:12;;;;;;;8.53;2.00;;;;;;;18.88;70.69;101334.67;1780017;80;21068;-82
2022/07/08 09:15:41;;;;;;;;;;;;;;;18.88;70.51;101340.83;1782763;80;21444;-84
2022/07/08 09:18:11;;;;;;;6.40;1.87;;;;;;;18.92;70.38;101345.02;1771146;80;21164;-82
2022/07/08 09:20:44;;;;;;;6.97;2.55;;;;;;;18.94;70.36;101345.79;1776336;80;21009;-81
2022/07/08 09:23:28;;;;;;;6.85;1.80;;;;;;;18.99;70.28;101352.18;1760782;80;21028;-82
2022/07/08 09:26:03;;;;;;;5.83;1.77;;;;;;;19.02;69.95;101355.13;1770137;80;21017;-79
2022/07/08 09:28:40;;;;;;;6.42;1.85;;;;;;;19.03;69.77;101355.51;1775193;80;21005;-86
2022/07/08 09:31:12;;;;;;;4.62;1.62;;;;;;;19.09;69.70;101349.83;1768202;80;21105;-86
2022/07/08 09:33:40;;;;;;;4.30;1.60;;;;;;;19.15;69.38;101346.38;1775275;80;21056;-93
2022/07/08 09:36:10;;;;;;;3.92;1.32;;;;;;;19.23;69.13;101351.22;1777120;80;20990;-90
2022/07/08 09:38:40;;;;;;;5.30;1.42;;;;;;;19.32;68.80;101351.18;1781518;80;21006;-84
2022/07/08 09:41:16;;;;;;;4.70;1.60;;;;;;;19.47;68.57;101362.23;1780487;80;21057;-84
2022/07/08 09:43:48;;;;;;;6.12;1.57;;;;;;;19.59;68.04;101362.84;1768194;80;21198;-92
2022/07/08 09:46:15;;;;;;;5.65;1.67;;;;;;;19.60;67.18;101365.02;1761261;80;21036;-83
2022/07/08 09:48:43;;;;;;;11.08;2.10;;;;;;;19.51;66.74;101368.20;1752538;80;21112;-84
2022/07/08 09:51:10;;;;;;;5.62;1.92;;;;;;;19.51;66.93;101358.45;1734337;80;21040;-85
2022/07/08 09:53:39;;;;;;;6.80;1.50;;;;;;;19.66;67.29;101358.52;1767848;78;21058;-87
2022/07/08 09:56:08;;;;;;;5.80;1.37;;;;;;;19.82;67.19;101353.98;1766003;80;21120;-88
2022/07/08 09:58:37;;;;;;;3.90;1.35;;;;;;;19.85;66.55;101356.45;1778091;78;21648;-90
2022/07/08 10:01:05;;;;;;;3.40;1.42;;;;;;;19.88;66.62;101364.25;1773539;78;21048;-81
2022/07/08 10:03:32;;;;;;;4.33;1.20;;;;;;;19.96;66.38;101363.31;1772860;80;21020;-82
2022/07/08 10:05:59;;;;;;;2.22;0.95;;;;;;;20.07;66.31;101367.98;1775255;80;21020;-81
2022/07/08 10:08:27;;;;;;;2.55;0.93;;;;;;;20.23;65.83;101374.06;1754838;80;21153;-81
2022/07/08 10:10:57;;;;;;;3.42;1.00;;;;;;;20.43;65.51;101368.82;1744639;80;22285;-82
2022/07/08 10:13:25;;;;;;;2.10;0.85;;;;;;;20.56;65.08;101368.91;1756667;80;21017;-82
2022/07/08 10:15:57;;;;;;;2.45;1.32;;;;;;;20.76;64.99;101365.00;1757960;79;21021;-80
2022/07/08 10:18:38;;;;;;;3.37;1.20;;;;;;;20.94;64.53;101359.78;1752561;80;21076;-84
2022/07/08 10:21:10;;;;;;;4.35;0.90;;;;;;;20.99;64.12;101367.49;1765283;80;21111;-81
2022/07/08 10:23:50;;;;;;;2.72;1.10;;;;;;;21.08;63.68;101352.22;1755653;80;20944;-81
2022/07/08 10:26:25;;;;;;;3.83;0.90;;;;;;;21.22;63.47;101350.45;1757275;80;21041;-81
2022/07/08 10:29:07;;;;;;;2.42;1.10;;;;;;;21.51;63.35;101352.55;1755202;80;21061;-81
2022/07/08 10:31:52;;;;;;;4.47;1.20;;;;;;;21.68;62.53;101356.23;1764067;80;21096;-82
2022/07/08 10:34:35;;;;;;;4.60;1.10;;;;;;;21.92;62.17;101349.70;1755763;80;21113;-83
2022/07/08 10:37:04;;;;;;;5.42;1.47;;;;;;;22.12;61.34;101351.45;1755578;80;21068;-83
2022/07/08 10:39:40;;;;;;;2.50;1.10;;;;;;;22.38;61.33;101342.45;1763950;80;21045;-85
2022/07/08 10:42:17;;;;;;;4.40;1.07;;;;;;;22.61;60.80;101335.43;1762012;80;21113;-81
2022/07/08 10:44:50;;;;;;;4.37;2.22;;;;;;;22.81;60.10;101329.11;1755623;80;21029;-86
2022/07/08 10:47:31;;;;;;;5.08;0.93;;;;;;;22.75;59.48;101330.91;1759891;80;21154;-79
2022/07/08 10:50:07;;;;;;;2.77;0.98;;;;;;;22.70;58.91;101326.77;1756165;78;21037;-83
2022/07/08 10:52:40;;;;;;;3.72;1.10;;;;;;;22.81;58.42;101323.77;1763975;80;21052;-83
2022/07/08 10:55:16;;;;;;;1.98;0.62;;;;;;;22.82;58.36;101341.52;1766592;80;21107;-83
2022/07/08 10:57:58;;;;;;;2.62;1.00;;;;;;;23.28;58.31;101330.08;1755383;80;21633;-88
2022/07/08 11:00:25;;;;;;;3.45;0.80;;;;;;;23.43;57.53;101330.26;1758993;80;21146;-88
2022/07/08 11:02:53;;;;;;;2.10;0.80;;;;;;;23.28;56.56;101333.62;1776462;80;21048;-83
2022/07/08 11:05:40;;;;;;;2.55;0.82;;;;;;;23.05;56.19;101334.00;1782111;80;21042;-86
2022/07/08 11:08:26;;;;;;;3.42;0.93;;;;;;;22.86;56.00;101349.22;1785588;80;21465;-86
2022/07/08 11:10:57;;;;;;;3.77;1.07;;;;;;;22.64;55.72;101330.34;1767527;80;21041;-82
2022/07/08 11:13:25;;;;;;;4.37;1.00;;;;;;;22.76;56.27;101326.80;1777005;80;21963;-93
2022/07/08 11:15:52;;;;;;;3.58;1.15;;;;;;;23.24;56.44;101330.80;1761917;80;21103;-84
2022/07/08 11:18:24;;;;;;;3.85;1.12;;;;;;;23.60;55.59;101331.64;1772451;80;21005;-78
2022/07/08 11:21:00;;;;;;;4.08;1.15;;;;;;;23.68;54.75;101333.73;1756994;80;21278;-82
2022/07/08 11:23:31;;;;;;;3.05;0.90;;;;;;;23.53;53.73;101333.95;1758624;80;21230;-85
2022/07/08 11:25:59;;;;;;;3.62;1.15;;;;;;;23.29;53.62;101329.97;1758236;80;21143;-85
2022/07/08 11:28:26;;;;;;;2.50;0.72;;;;;;;23.26;53.77;101332.04;1761366;80;21069;-81
2022/07/08 11:30:53;;;;;;;4.12;0.90;;;;;;;23.25;53.65;101336.54;1761609;80;21025;-87